Airfield :
LOGIN :

Register | Disclaimer

   EN    FR    IT 

 










Legend :    VFR   Marginal VFR   IFR   Intensive IFR   Very Intensive IFR
Visi :
Ceiling :
>= 8 km
>= 3000ft
5 to 8 km
1000 to 3000 ft
1500m to 5 km
500 to 1000 ft
800 to 1500m
200 to 500 ft
< 800m
< 200 ft
Symbols :   Thunderstorms  Fog  Heavy snow  Heavy precipitations  Wind > 20 kt
SIGMETs :     Misc.  Thunderstorms  Icing  Turbulence  Mountain Waves  Volcanic Ashes







- Airport Elevation : 84 ft
- Download approach charts


LFBC - Cazaux

CURRENT METAR :
  • 252300Z AUTO 36006KT CAVOK M00/M06 Q1016

EXPIRED METARs :
  • 252230Z AUTO 02006KT CAVOK 01/M05 Q1016
  • 252200Z AUTO 01007KT CAVOK 01/M05 Q1016
  • 252130Z AUTO 02006KT 9999 NSC 02/M05 Q1016
  • 252100Z AUTO 01007KT CAVOK 02/M05 Q1016
  • 252030Z AUTO 01008KT CAVOK 03/M05 Q1015

TAF TAF LFBC
Valid from the 25 at 09:00 until the 26 at 09:00 UTC


250800Z 2509/2609 36005KT 6000 NSC
TEMPO 2509/2511 4000 BR
No reported NOTAMs for that airfield.



MET'MAP, your aeronautical weather chart ! - Copyright ORBIFLY December 2007 - Disclaimer

ORBIFLY MET'MAP TEAM :

Programming & Development : Alexandra Zaïnal
Concept & Development : Baudouin d'Aumeries
Co-Development & Prog : Marc-Olivier Méhu
Technical & hardware support : Manuel Goepfert

Contact : metmap@orbifly.com




SOURCES & CREDITS :

   NOAA